sensor_id;sensor_type;location;lat;lon;timestamp;P1;durP1;ratioP1;P2;durP2;ratioP2
7485;SDS011;3784;54.098;9.998;2022-11-21T00:00:30;11.07;;;9.95;;
7485;SDS011;3784;54.098;9.998;2022-11-21T00:02:58;10.80;;;9.70;;
7485;SDS011;3784;54.098;9.998;2022-11-21T00:05:27;11.13;;;10.02;;
7485;SDS011;3784;54.098;9.998;2022-11-21T00:07:54;11.52;;;10.32;;
7485;SDS011;3784;54.098;9.998;2022-11-21T00:10:22;10.95;;;9.68;;
7485;SDS011;3784;54.098;9.998;2022-11-21T00:12:52;10.60;;;9.55;;
7485;SDS011;3784;54.098;9.998;2022-11-21T00:15:20;10.43;;;9.43;;
7485;SDS011;3784;54.098;9.998;2022-11-21T00:17:47;9.32;;;8.40;;
7485;SDS011;3784;54.098;9.998;2022-11-21T00:20:14;10.15;;;9.15;;
7485;SDS011;3784;54.098;9.998;2022-11-21T00:22:41;11.80;;;9.27;;
7485;SDS011;3784;54.098;9.998;2022-11-21T00:25:07;10.85;;;9.75;;
7485;SDS011;3784;54.098;9.998;2022-11-21T00:27:34;10.73;;;9.27;;
7485;SDS011;3784;54.098;9.998;2022-11-21T00:30:00;10.75;;;9.65;;
7485;SDS011;3784;54.098;9.998;2022-11-21T00:32:27;12.77;;;10.48;;
7485;SDS011;3784;54.098;9.998;2022-11-21T00:34:53;11.38;;;9.88;;
7485;SDS011;3784;54.098;9.998;2022-11-21T00:37:20;10.80;;;9.48;;
7485;SDS011;3784;54.098;9.998;2022-11-21T00:39:46;12.50;;;11.20;;
7485;SDS011;3784;54.098;9.998;2022-11-21T00:42:13;12.85;;;10.80;;
7485;SDS011;3784;54.098;9.998;2022-11-21T00:44:39;12.77;;;10.90;;
7485;SDS011;3784;54.098;9.998;2022-11-21T00:47:06;12.10;;;10.57;;
7485;SDS011;3784;54.098;9.998;2022-11-21T00:49:32;10.32;;;8.93;;
7485;SDS011;3784;54.098;9.998;2022-11-21T00:51:59;11.85;;;9.85;;
7485;SDS011;3784;54.098;9.998;2022-11-21T00:54:25;10.30;;;9.02;;
7485;SDS011;3784;54.098;9.998;2022-11-21T00:56:52;11.50;;;9.05;;
7485;SDS011;3784;54.098;9.998;2022-11-21T00:59:18;10.23;;;8.70;;
7485;SDS011;3784;54.098;9.998;2022-11-21T01:01:45;9.00;;;8.07;;
7485;SDS011;3784;54.098;9.998;2022-11-21T01:04:11;9.77;;;8.77;;
7485;SDS011;3784;54.098;9.998;2022-11-21T01:06:38;10.20;;;9.05;;
7485;SDS011;3784;54.098;9.998;2022-11-21T01:09:05;9.50;;;8.50;;
7485;SDS011;3784;54.098;9.998;2022-11-21T01:11:31;9.80;;;8.80;;
7485;SDS011;3784;54.098;9.998;2022-11-21T01:13:58;10.88;;;8.85;;
7485;SDS011;3784;54.098;9.998;2022-11-21T01:16:25;9.68;;;8.68;;
7485;SDS011;3784;54.098;9.998;2022-11-21T01:18:52;10.57;;;9.47;;
7485;SDS011;3784;54.098;9.998;2022-11-21T01:21:20;13.38;;;9.18;;
7485;SDS011;3784;54.098;9.998;2022-11-21T01:23:48;9.65;;;8.68;;
7485;SDS011;3784;54.098;9.998;2022-11-21T01:26:16;9.90;;;8.43;;
7485;SDS011;3784;54.098;9.998;2022-11-21T01:28:45;9.93;;;8.73;;
7485;SDS011;3784;54.098;9.998;2022-11-21T01:31:16;9.90;;;8.87;;
7485;SDS011;3784;54.098;9.998;2022-11-21T01:33:49;10.10;;;9.05;;
7485;SDS011;3784;54.098;9.998;2022-11-21T01:36:20;10.47;;;9.40;;
7485;SDS011;3784;54.098;9.998;2022-11-21T01:38:49;9.20;;;8.23;;
7485;SDS011;3784;54.098;9.998;2022-11-21T01:41:18;10.70;;;9.60;;
7485;SDS011;3784;54.098;9.998;2022-11-21T01:43:56;11.77;;;10.20;;
7485;SDS011;3784;54.098;9.998;2022-11-21T01:46:23;10.27;;;9.27;;
7485;SDS011;3784;54.098;9.998;2022-11-21T01:49:04;10.57;;;9.52;;
7485;SDS011;3784;54.098;9.998;2022-11-21T01:54:03;10.33;;;9.13;;
7485;SDS011;3784;54.098;9.998;2022-11-21T01:56:34;10.43;;;9.33;;
7485;SDS011;3784;54.098;9.998;2022-11-21T01:59:05;12.23;;;9.73;;
7485;SDS011;3784;54.098;9.998;2022-11-21T02:01:34;11.98;;;10.50;;
7485;SDS011;3784;54.098;9.998;2022-11-21T02:04:01;11.93;;;10.73;;
7485;SDS011;3784;54.098;9.998;2022-11-21T02:06:28;11.63;;;10.43;;
7485;SDS011;3784;54.098;9.998;2022-11-21T02:08:57;12.35;;;11.00;;
7485;SDS011;3784;54.098;9.998;2022-11-21T02:11:39;12.57;;;11.27;;
7485;SDS011;3784;54.098;9.998;2022-11-21T02:14:07;10.73;;;9.68;;
7485;SDS011;3784;54.098;9.998;2022-11-21T02:16:34;11.02;;;9.98;;
7485;SDS011;3784;54.098;9.998;2022-11-21T02:19:01;10.80;;;9.68;;
7485;SDS011;3784;54.098;9.998;2022-11-21T02:21:38;11.27;;;10.20;;
7485;SDS011;3784;54.098;9.998;2022-11-21T02:24:29;10.47;;;9.47;;
7485;SDS011;3784;54.098;9.998;2022-11-21T02:27:17;10.73;;;9.43;;
7485;SDS011;3784;54.098;9.998;2022-11-21T02:29:43;10.50;;;9.38;;
7485;SDS011;3784;54.098;9.998;2022-11-21T02:32:18;10.40;;;9.40;;
7485;SDS011;3784;54.098;9.998;2022-11-21T02:34:46;10.70;;;9.20;;
7485;SDS011;3784;54.098;9.998;2022-11-21T02:37:12;11.70;;;10.48;;
7485;SDS011;3784;54.098;9.998;2022-11-21T02:39:39;11.30;;;9.77;;
7485;SDS011;3784;54.098;9.998;2022-11-21T02:42:16;10.73;;;9.50;;
7485;SDS011;3784;54.098;9.998;2022-11-21T02:45:07;11.37;;;10.17;;
7485;SDS011;3784;54.098;9.998;2022-11-21T02:47:39;11.27;;;9.75;;
7485;SDS011;3784;54.098;9.998;2022-11-21T02:52:49;10.60;;;9.57;;
7485;SDS011;3784;54.098;9.998;2022-11-21T02:55:15;9.90;;;9.00;;
7485;SDS011;3784;54.098;9.998;2022-11-21T02:57:42;10.82;;;9.82;;
7485;SDS011;3784;54.098;9.998;2022-11-21T03:00:09;11.03;;;9.93;;
7485;SDS011;3784;54.098;9.998;2022-11-21T03:02:36;10.93;;;9.88;;
7485;SDS011;3784;54.098;9.998;2022-11-21T03:05:03;11.73;;;10.10;;
7485;SDS011;3784;54.098;9.998;2022-11-21T03:07:31;10.20;;;9.20;;
7485;SDS011;3784;54.098;9.998;2022-11-21T03:09:57;10.70;;;9.63;;
7485;SDS011;3784;54.098;9.998;2022-11-21T03:12:24;11.05;;;9.25;;
7485;SDS011;3784;54.098;9.998;2022-11-21T03:14:50;10.95;;;9.88;;
7485;SDS011;3784;54.098;9.998;2022-11-21T03:17:17;10.80;;;9.70;;
7485;SDS011;3784;54.098;9.998;2022-11-21T03:19:43;10.52;;;9.52;;
7485;SDS011;3784;54.098;9.998;2022-11-21T03:22:11;10.87;;;9.77;;
7485;SDS011;3784;54.098;9.998;2022-11-21T03:24:38;9.87;;;8.87;;
7485;SDS011;3784;54.098;9.998;2022-11-21T03:27:04;11.50;;;10.30;;
7485;SDS011;3784;54.098;9.998;2022-11-21T03:29:31;11.55;;;10.27;;
7485;SDS011;3784;54.098;9.998;2022-11-21T03:31:58;11.43;;;10.23;;
7485;SDS011;3784;54.098;9.998;2022-11-21T03:34:24;11.00;;;10.00;;
7485;SDS011;3784;54.098;9.998;2022-11-21T03:36:51;10.83;;;9.70;;
7485;SDS011;3784;54.098;9.998;2022-11-21T03:39:18;10.10;;;9.10;;
7485;SDS011;3784;54.098;9.998;2022-11-21T03:41:44;10.63;;;9.53;;
7485;SDS011;3784;54.098;9.998;2022-11-21T03:44:11;10.68;;;8.80;;
7485;SDS011;3784;54.098;9.998;2022-11-21T03:46:39;10.53;;;8.87;;
7485;SDS011;3784;54.098;9.998;2022-11-21T03:49:07;9.77;;;8.87;;
7485;SDS011;3784;54.098;9.998;2022-11-21T03:51:34;9.97;;;9.00;;
7485;SDS011;3784;54.098;9.998;2022-11-21T03:54:01;11.20;;;10.07;;
7485;SDS011;3784;54.098;9.998;2022-11-21T03:56:27;10.43;;;9.43;;
7485;SDS011;3784;54.098;9.998;2022-11-21T03:58:54;11.13;;;10.13;;
7485;SDS011;3784;54.098;9.998;2022-11-21T04:01:21;13.17;;;10.00;;
7485;SDS011;3784;54.098;9.998;2022-11-21T04:03:48;11.33;;;10.13;;
7485;SDS011;3784;54.098;9.998;2022-11-21T04:06:16;10.97;;;9.87;;
7485;SDS011;3784;54.098;9.998;2022-11-21T04:08:44;10.97;;;9.87;;
7485;SDS011;3784;54.098;9.998;2022-11-21T04:11:11;10.20;;;8.87;;
7485;SDS011;3784;54.098;9.998;2022-11-21T04:13:37;10.70;;;9.70;;
7485;SDS011;3784;54.098;9.998;2022-11-21T04:16:04;11.37;;;10.27;;
7485;SDS011;3784;54.098;9.998;2022-11-21T04:18:32;11.27;;;10.03;;
7485;SDS011;3784;54.098;9.998;2022-11-21T04:20:59;11.23;;;9.53;;
7485;SDS011;3784;54.098;9.998;2022-11-21T04:23:27;11.10;;;10.00;;
7485;SDS011;3784;54.098;9.998;2022-11-21T04:25:53;10.67;;;9.40;;
7485;SDS011;3784;54.098;9.998;2022-11-21T04:28:20;10.93;;;9.90;;
7485;SDS011;3784;54.098;9.998;2022-11-21T04:30:47;10.60;;;9.43;;
7485;SDS011;3784;54.098;9.998;2022-11-21T04:33:14;11.30;;;10.20;;
7485;SDS011;3784;54.098;9.998;2022-11-21T04:35:42;10.60;;;9.53;;
7485;SDS011;3784;54.098;9.998;2022-11-21T04:38:09;10.80;;;9.70;;
7485;SDS011;3784;54.098;9.998;2022-11-21T04:40:36;10.90;;;9.80;;
7485;SDS011;3784;54.098;9.998;2022-11-21T04:43:03;11.40;;;10.20;;
7485;SDS011;3784;54.098;9.998;2022-11-21T04:45:30;12.60;;;10.30;;
7485;SDS011;3784;54.098;9.998;2022-11-21T04:47:57;11.17;;;10.03;;
7485;SDS011;3784;54.098;9.998;2022-11-21T04:50:23;11.40;;;9.57;;
7485;SDS011;3784;54.098;9.998;2022-11-21T04:52:54;12.43;;;9.90;;
7485;SDS011;3784;54.098;9.998;2022-11-21T04:55:22;10.57;;;9.57;;
7485;SDS011;3784;54.098;9.998;2022-11-21T04:57:50;11.30;;;10.20;;
7485;SDS011;3784;54.098;9.998;2022-11-21T05:00:16;11.10;;;9.73;;
7485;SDS011;3784;54.098;9.998;2022-11-21T05:02:49;11.23;;;9.43;;
7485;SDS011;3784;54.098;9.998;2022-11-21T05:05:16;10.43;;;9.40;;
7485;SDS011;3784;54.098;9.998;2022-11-21T05:07:42;10.43;;;9.43;;
7485;SDS011;3784;54.098;9.998;2022-11-21T05:10:09;9.97;;;8.97;;
7485;SDS011;3784;54.098;9.998;2022-11-21T05:12:35;10.30;;;9.30;;
7485;SDS011;3784;54.098;9.998;2022-11-21T05:15:20;12.00;;;9.30;;
7485;SDS011;3784;54.098;9.998;2022-11-21T05:17:50;9.40;;;8.50;;
7485;SDS011;3784;54.098;9.998;2022-11-21T05:20:16;9.97;;;8.97;;
7485;SDS011;3784;54.098;9.998;2022-11-21T05:22:44;10.10;;;9.10;;
7485;SDS011;3784;54.098;9.998;2022-11-21T05:25:15;10.37;;;9.37;;
7485;SDS011;3784;54.098;9.998;2022-11-21T05:27:41;10.23;;;9.23;;
7485;SDS011;3784;54.098;9.998;2022-11-21T05:30:08;10.17;;;9.00;;
7485;SDS011;3784;54.098;9.998;2022-11-21T05:32:36;10.87;;;9.83;;
7485;SDS011;3784;54.098;9.998;2022-11-21T05:35:03;10.93;;;9.87;;
7485;SDS011;3784;54.098;9.998;2022-11-21T05:37:29;10.87;;;9.77;;
7485;SDS011;3784;54.098;9.998;2022-11-21T05:39:56;10.67;;;9.57;;
7485;SDS011;3784;54.098;9.998;2022-11-21T05:42:22;10.63;;;9.63;;
7485;SDS011;3784;54.098;9.998;2022-11-21T05:45:09;10.07;;;8.97;;
7485;SDS011;3784;54.098;9.998;2022-11-21T05:47:35;8.87;;;7.97;;
7485;SDS011;3784;54.098;9.998;2022-11-21T05:50:02;9.97;;;8.97;;
7485;SDS011;3784;54.098;9.998;2022-11-21T05:52:29;10.30;;;9.30;;
7485;SDS011;3784;54.098;9.998;2022-11-21T05:54:55;10.53;;;9.53;;
7485;SDS011;3784;54.098;9.998;2022-11-21T05:57:22;12.50;;;10.80;;
7485;SDS011;3784;54.098;9.998;2022-11-21T05:59:48;13.20;;;11.80;;
7485;SDS011;3784;54.098;9.998;2022-11-21T06:02:15;12.73;;;11.37;;
7485;SDS011;3784;54.098;9.998;2022-11-21T06:05:00;12.07;;;10.23;;
7485;SDS011;3784;54.098;9.998;2022-11-21T06:07:26;11.20;;;9.43;;
7485;SDS011;3784;54.098;9.998;2022-11-21T06:09:53;11.50;;;9.10;;
7485;SDS011;3784;54.098;9.998;2022-11-21T06:12:20;10.60;;;9.47;;
7485;SDS011;3784;54.098;9.998;2022-11-21T06:14:50;9.90;;;8.90;;
7485;SDS011;3784;54.098;9.998;2022-11-21T06:17:17;9.80;;;8.90;;
7485;SDS011;3784;54.098;9.998;2022-11-21T06:19:43;10.93;;;9.60;;
7485;SDS011;3784;54.098;9.998;2022-11-21T06:22:10;10.33;;;9.23;;
7485;SDS011;3784;54.098;9.998;2022-11-21T06:24:36;10.73;;;9.63;;
7485;SDS011;3784;54.098;9.998;2022-11-21T06:27:03;12.47;;;11.17;;
7485;SDS011;3784;54.098;9.998;2022-11-21T06:29:29;13.50;;;12.10;;
7485;SDS011;3784;54.098;9.998;2022-11-21T06:31:56;13.50;;;12.07;;
7485;SDS011;3784;54.098;9.998;2022-11-21T06:34:24;11.57;;;10.47;;
7485;SDS011;3784;54.098;9.998;2022-11-21T06:36:52;10.93;;;9.90;;
7485;SDS011;3784;54.098;9.998;2022-11-21T06:39:19;13.20;;;9.93;;
7485;SDS011;3784;54.098;9.998;2022-11-21T06:41:45;10.10;;;9.10;;
7485;SDS011;3784;54.098;9.998;2022-11-21T06:44:17;11.90;;;10.80;;
7485;SDS011;3784;54.098;9.998;2022-11-21T06:46:43;10.00;;;9.03;;
7485;SDS011;3784;54.098;9.998;2022-11-21T06:49:16;11.43;;;10.23;;
7485;SDS011;3784;54.098;9.998;2022-11-21T06:51:42;11.43;;;10.07;;
7485;SDS011;3784;54.098;9.998;2022-11-21T06:54:09;11.27;;;9.73;;
7485;SDS011;3784;54.098;9.998;2022-11-21T06:56:41;11.67;;;9.90;;
7485;SDS011;3784;54.098;9.998;2022-11-21T06:59:08;10.57;;;9.50;;
7485;SDS011;3784;54.098;9.998;2022-11-21T07:01:34;10.27;;;9.27;;
7485;SDS011;3784;54.098;9.998;2022-11-21T07:04:01;9.97;;;8.97;;
7485;SDS011;3784;54.098;9.998;2022-11-21T07:06:27;10.70;;;9.60;;
7485;SDS011;3784;54.098;9.998;2022-11-21T07:08:54;9.20;;;8.30;;
7485;SDS011;3784;54.098;9.998;2022-11-21T07:11:40;10.73;;;8.93;;
7485;SDS011;3784;54.098;9.998;2022-11-21T07:14:07;10.27;;;9.17;;
7485;SDS011;3784;54.098;9.998;2022-11-21T07:16:34;10.87;;;9.23;;
7485;SDS011;3784;54.098;9.998;2022-11-21T07:19:01;10.03;;;9.03;;
7485;SDS011;3784;54.098;9.998;2022-11-21T07:21:27;10.73;;;9.47;;
7485;SDS011;3784;54.098;9.998;2022-11-21T07:23:54;9.77;;;8.77;;
7485;SDS011;3784;54.098;9.998;2022-11-21T07:26:20;8.67;;;7.80;;
7485;SDS011;3784;54.098;9.998;2022-11-21T07:28:47;8.80;;;7.90;;
7485;SDS011;3784;54.098;9.998;2022-11-21T07:31:13;8.57;;;7.67;;
7485;SDS011;3784;54.098;9.998;2022-11-21T07:33:40;9.07;;;7.57;;
7485;SDS011;3784;54.098;9.998;2022-11-21T07:36:09;7.87;;;7.00;;
7485;SDS011;3784;54.098;9.998;2022-11-21T07:38:36;9.10;;;8.20;;
7485;SDS011;3784;54.098;9.998;2022-11-21T07:41:02;9.23;;;8.33;;
7485;SDS011;3784;54.098;9.998;2022-11-21T07:43:29;10.00;;;8.80;;
7485;SDS011;3784;54.098;9.998;2022-11-21T07:45:55;9.00;;;8.10;;
7485;SDS011;3784;54.098;9.998;2022-11-21T07:48:22;9.00;;;8.10;;
7485;SDS011;3784;54.098;9.998;2022-11-21T07:50:48;9.53;;;7.87;;
7485;SDS011;3784;54.098;9.998;2022-11-21T07:53:15;9.73;;;8.47;;
7485;SDS011;3784;54.098;9.998;2022-11-21T07:55:41;9.17;;;8.27;;
7485;SDS011;3784;54.098;9.998;2022-11-21T07:58:09;8.53;;;7.77;;
7485;SDS011;3784;54.098;9.998;2022-11-21T08:00:38;9.50;;;8.60;;
7485;SDS011;3784;54.098;9.998;2022-11-21T08:03:08;8.97;;;8.10;;
7485;SDS011;3784;54.098;9.998;2022-11-21T08:05:35;8.83;;;7.90;;
7485;SDS011;3784;54.098;9.998;2022-11-21T08:08:02;9.17;;;8.37;;
7485;SDS011;3784;54.098;9.998;2022-11-21T08:10:29;8.97;;;8.10;;
7485;SDS011;3784;54.098;9.998;2022-11-21T08:12:56;9.47;;;8.47;;
7485;SDS011;3784;54.098;9.998;2022-11-21T08:15:22;10.20;;;8.10;;
7485;SDS011;3784;54.098;9.998;2022-11-21T08:17:49;9.23;;;8.33;;
7485;SDS011;3784;54.098;9.998;2022-11-21T08:20:15;9.20;;;8.30;;
7485;SDS011;3784;54.098;9.998;2022-11-21T08:22:42;10.23;;;9.07;;
7485;SDS011;3784;54.098;9.998;2022-11-21T08:25:09;10.83;;;9.73;;
7485;SDS011;3784;54.098;9.998;2022-11-21T08:27:36;12.63;;;10.33;;
7485;SDS011;3784;54.098;9.998;2022-11-21T08:30:07;10.20;;;9.23;;
7485;SDS011;3784;54.098;9.998;2022-11-21T08:32:35;10.40;;;9.40;;
7485;SDS011;3784;54.098;9.998;2022-11-21T08:35:02;9.83;;;8.93;;
7485;SDS011;3784;54.098;9.998;2022-11-21T08:37:28;10.33;;;9.17;;
7485;SDS011;3784;54.098;9.998;2022-11-21T08:39:55;10.47;;;9.07;;
7485;SDS011;3784;54.098;9.998;2022-11-21T08:42:24;9.53;;;8.63;;
7485;SDS011;3784;54.098;9.998;2022-11-21T08:44:51;10.17;;;8.83;;
7485;SDS011;3784;54.098;9.998;2022-11-21T08:47:17;10.17;;;9.17;;
7485;SDS011;3784;54.098;9.998;2022-11-21T08:49:45;11.07;;;9.87;;
7485;SDS011;3784;54.098;9.998;2022-11-21T08:52:12;10.40;;;9.40;;
7485;SDS011;3784;54.098;9.998;2022-11-21T08:54:39;9.97;;;9.07;;
7485;SDS011;3784;54.098;9.998;2022-11-21T08:57:06;10.37;;;9.27;;
7485;SDS011;3784;54.098;9.998;2022-11-21T08:59:32;9.77;;;8.87;;
7485;SDS011;3784;54.098;9.998;2022-11-21T09:01:59;11.10;;;9.67;;
7485;SDS011;3784;54.098;9.998;2022-11-21T09:04:26;10.27;;;9.10;;
7485;SDS011;3784;54.098;9.998;2022-11-21T09:06:52;9.20;;;8.30;;
7485;SDS011;3784;54.098;9.998;2022-11-21T09:09:19;10.83;;;8.97;;
7485;SDS011;3784;54.098;9.998;2022-11-21T09:11:50;11.20;;;8.77;;
7485;SDS011;3784;54.098;9.998;2022-11-21T09:14:17;10.67;;;9.57;;
7485;SDS011;3784;54.098;9.998;2022-11-21T09:17:02;9.17;;;8.27;;
7485;SDS011;3784;54.098;9.998;2022-11-21T09:19:47;10.03;;;9.13;;
7485;SDS011;3784;54.098;9.998;2022-11-21T09:22:14;10.97;;;9.87;;
7485;SDS011;3784;54.098;9.998;2022-11-21T09:24:40;10.00;;;9.00;;
7485;SDS011;3784;54.098;9.998;2022-11-21T09:27:07;10.60;;;9.70;;
7485;SDS011;3784;54.098;9.998;2022-11-21T09:29:33;10.53;;;9.63;;
7485;SDS011;3784;54.098;9.998;2022-11-21T09:32:00;10.53;;;9.60;;
7485;SDS011;3784;54.098;9.998;2022-11-21T09:34:26;10.50;;;9.50;;
7485;SDS011;3784;54.098;9.998;2022-11-21T09:36:53;10.47;;;9.50;;
7485;SDS011;3784;54.098;9.998;2022-11-21T09:39:21;11.57;;;10.47;;
7485;SDS011;3784;54.098;9.998;2022-11-21T09:41:54;11.97;;;10.77;;
7485;SDS011;3784;54.098;9.998;2022-11-21T09:47:01;11.47;;;10.47;;
7485;SDS011;3784;54.098;9.998;2022-11-21T09:49:30;12.30;;;11.20;;
7485;SDS011;3784;54.098;9.998;2022-11-21T09:52:03;13.00;;;11.80;;
7485;SDS011;3784;54.098;9.998;2022-11-21T09:54:31;13.60;;;12.23;;
7485;SDS011;3784;54.098;9.998;2022-11-21T09:56:59;13.40;;;12.03;;
7485;SDS011;3784;54.098;9.998;2022-11-21T09:59:36;13.47;;;12.17;;
7485;SDS011;3784;54.098;9.998;2022-11-21T10:02:13;13.90;;;12.50;;
7485;SDS011;3784;54.098;9.998;2022-11-21T10:04:40;13.83;;;12.43;;
7485;SDS011;3784;54.098;9.998;2022-11-21T10:07:20;14.53;;;12.97;;
7485;SDS011;3784;54.098;9.998;2022-11-21T10:29:08;14.63;;;12.93;;
7485;SDS011;3784;54.098;9.998;2022-11-21T10:31:38;14.20;;;12.80;;
7485;SDS011;3784;54.098;9.998;2022-11-21T10:34:09;15.33;;;13.73;;
7485;SDS011;3784;54.098;9.998;2022-11-21T10:36:38;14.30;;;12.90;;
7485;SDS011;3784;54.098;9.998;2022-11-21T10:39:11;14.03;;;12.73;;
7485;SDS011;3784;54.098;9.998;2022-11-21T10:41:54;14.23;;;12.83;;
7485;SDS011;3784;54.098;9.998;2022-11-21T10:44:26;14.37;;;12.43;;
7485;SDS011;3784;54.098;9.998;2022-11-21T10:47:13;13.90;;;12.47;;
7485;SDS011;3784;54.098;9.998;2022-11-21T10:49:39;14.40;;;12.90;;
7485;SDS011;3784;54.098;9.998;2022-11-21T10:52:12;14.87;;;12.83;;
7485;SDS011;3784;54.098;9.998;2022-11-21T10:55:01;13.47;;;12.07;;
7485;SDS011;3784;54.098;9.998;2022-11-21T10:57:48;13.10;;;11.80;;
7485;SDS011;3784;54.098;9.998;2022-11-21T11:00:20;13.50;;;12.23;;
7485;SDS011;3784;54.098;9.998;2022-11-21T11:10:29;12.27;;;11.07;;
7485;SDS011;3784;54.098;9.998;2022-11-21T11:12:57;12.83;;;11.57;;
7485;SDS011;3784;54.098;9.998;2022-11-21T11:21:17;12.13;;;10.77;;
7485;SDS011;3784;54.098;9.998;2022-11-21T11:23:46;12.67;;;11.37;;
7485;SDS011;3784;54.098;9.998;2022-11-21T11:26:21;12.80;;;11.50;;
7485;SDS011;3784;54.098;9.998;2022-11-21T11:28:50;12.40;;;11.20;;
7485;SDS011;3784;54.098;9.998;2022-11-21T11:31:16;14.07;;;12.57;;
7485;SDS011;3784;54.098;9.998;2022-11-21T11:36:14;11.67;;;10.47;;
7485;SDS011;3784;54.098;9.998;2022-11-21T11:38:47;11.10;;;10.00;;
7485;SDS011;3784;54.098;9.998;2022-11-21T11:41:25;12.10;;;10.90;;
7485;SDS011;3784;54.098;9.998;2022-11-21T11:47:00;11.27;;;10.20;;
7485;SDS011;3784;54.098;9.998;2022-11-21T11:49:50;10.67;;;9.60;;
7485;SDS011;3784;54.098;9.998;2022-11-21T11:52:42;11.37;;;10.27;;
7485;SDS011;3784;54.098;9.998;2022-11-21T11:55:16;12.00;;;10.80;;
7485;SDS011;3784;54.098;9.998;2022-11-21T11:57:48;11.73;;;10.63;;
7485;SDS011;3784;54.098;9.998;2022-11-21T12:00:26;11.03;;;9.93;;
7485;SDS011;3784;54.098;9.998;2022-11-21T12:02:59;11.10;;;10.10;;
7485;SDS011;3784;54.098;9.998;2022-11-21T12:05:31;11.23;;;10.17;;
7485;SDS011;3784;54.098;9.998;2022-11-21T12:08:02;10.27;;;9.27;;
7485;SDS011;3784;54.098;9.998;2022-11-21T12:10:56;10.63;;;9.53;;
7485;SDS011;3784;54.098;9.998;2022-11-21T12:13:53;11.17;;;10.07;;
7485;SDS011;3784;54.098;9.998;2022-11-21T12:16:19;10.07;;;9.07;;
7485;SDS011;3784;54.098;9.998;2022-11-21T12:19:09;10.53;;;9.43;;
7485;SDS011;3784;54.098;9.998;2022-11-21T12:21:36;10.23;;;9.13;;
7485;SDS011;3784;54.098;9.998;2022-11-21T12:24:02;10.37;;;9.27;;
7485;SDS011;3784;54.098;9.998;2022-11-21T12:37:34;8.70;;;7.87;;
7485;SDS011;3784;54.098;9.998;2022-11-21T12:40:10;10.00;;;9.00;;
7485;SDS011;3784;54.098;9.998;2022-11-21T12:48:02;10.77;;;9.43;;
7485;SDS011;3784;54.098;9.998;2022-11-21T13:05:26;10.83;;;9.70;;
7485;SDS011;3784;54.098;9.998;2022-11-21T13:08:01;12.03;;;10.60;;
7485;SDS011;3784;54.098;9.998;2022-11-21T13:10:55;10.43;;;9.33;;
7485;SDS011;3784;54.098;9.998;2022-11-21T13:13:47;10.67;;;9.40;;
7485;SDS011;3784;54.098;9.998;2022-11-21T13:16:19;11.07;;;9.83;;
7485;SDS011;3784;54.098;9.998;2022-11-21T13:21:45;16.00;;;11.67;;
7485;SDS011;3784;54.098;9.998;2022-11-21T13:27:31;10.53;;;9.43;;
7485;SDS011;3784;54.098;9.998;2022-11-21T13:46:00;14.27;;;11.40;;
7485;SDS011;3784;54.098;9.998;2022-11-21T13:56:24;19.23;;;12.10;;
7485;SDS011;3784;54.098;9.998;2022-11-21T13:59:15;13.37;;;10.70;;
7485;SDS011;3784;54.098;9.998;2022-11-21T14:07:49;11.90;;;10.70;;
7485;SDS011;3784;54.098;9.998;2022-11-21T14:10:29;12.40;;;10.50;;
7485;SDS011;3784;54.098;9.998;2022-11-21T14:12:58;12.67;;;10.23;;
7485;SDS011;3784;54.098;9.998;2022-11-21T14:18:21;13.03;;;10.87;;
7485;SDS011;3784;54.098;9.998;2022-11-21T14:20:50;13.93;;;11.27;;
7485;SDS011;3784;54.098;9.998;2022-11-21T14:23:20;12.63;;;10.47;;
7485;SDS011;3784;54.098;9.998;2022-11-21T14:25:48;11.80;;;10.60;;
7485;SDS011;3784;54.098;9.998;2022-11-21T14:28:20;11.17;;;10.07;;
7485;SDS011;3784;54.098;9.998;2022-11-21T14:30:59;12.40;;;10.37;;
7485;SDS011;3784;54.098;9.998;2022-11-21T14:33:32;11.90;;;9.93;;
7485;SDS011;3784;54.098;9.998;2022-11-21T14:36:13;10.80;;;9.70;;
7485;SDS011;3784;54.098;9.998;2022-11-21T14:38:45;12.20;;;10.90;;
7485;SDS011;3784;54.098;9.998;2022-11-21T14:41:33;12.53;;;10.23;;
7485;SDS011;3784;54.098;9.998;2022-11-21T14:46:28;11.20;;;10.00;;
7485;SDS011;3784;54.098;9.998;2022-11-21T14:49:19;13.17;;;10.97;;
7485;SDS011;3784;54.098;9.998;2022-11-21T14:51:48;12.77;;;11.30;;
7485;SDS011;3784;54.098;9.998;2022-11-21T14:54:17;14.83;;;10.87;;
7485;SDS011;3784;54.098;9.998;2022-11-21T14:56:51;14.70;;;10.93;;
7485;SDS011;3784;54.098;9.998;2022-11-21T14:59:25;12.13;;;10.57;;
7485;SDS011;3784;54.098;9.998;2022-11-21T15:01:55;13.10;;;11.03;;
7485;SDS011;3784;54.098;9.998;2022-11-21T15:04:42;17.93;;;11.20;;
7485;SDS011;3784;54.098;9.998;2022-11-21T15:07:28;13.57;;;10.17;;
7485;SDS011;3784;54.098;9.998;2022-11-21T15:10:12;11.23;;;9.13;;
7485;SDS011;3784;54.098;9.998;2022-11-21T15:12:56;12.00;;;9.97;;
7485;SDS011;3784;54.098;9.998;2022-11-21T15:15:35;11.03;;;9.83;;
7485;SDS011;3784;54.098;9.998;2022-11-21T15:18:22;10.33;;;9.03;;
7485;SDS011;3784;54.098;9.998;2022-11-21T15:20:57;10.50;;;9.43;;
7485;SDS011;3784;54.098;9.998;2022-11-21T15:23:35;11.33;;;10.13;;
7485;SDS011;3784;54.098;9.998;2022-11-21T15:26:05;10.33;;;9.33;;
7485;SDS011;3784;54.098;9.998;2022-11-21T15:28:54;12.17;;;10.90;;
7485;SDS011;3784;54.098;9.998;2022-11-21T15:31:22;12.30;;;11.03;;
7485;SDS011;3784;54.098;9.998;2022-11-21T15:34:07;13.10;;;11.70;;
7485;SDS011;3784;54.098;9.998;2022-11-21T15:37:01;15.67;;;13.40;;
7485;SDS011;3784;54.098;9.998;2022-11-21T15:39:29;16.37;;;14.20;;
7485;SDS011;3784;54.098;9.998;2022-11-21T15:42:26;14.63;;;12.83;;
7485;SDS011;3784;54.098;9.998;2022-11-21T15:44:59;15.63;;;13.90;;
7485;SDS011;3784;54.098;9.998;2022-11-21T15:47:29;20.33;;;16.13;;
7485;SDS011;3784;54.098;9.998;2022-11-21T15:49:55;15.20;;;12.70;;
7485;SDS011;3784;54.098;9.998;2022-11-21T15:52:22;14.87;;;13.13;;
7485;SDS011;3784;54.098;9.998;2022-11-21T15:54:49;21.40;;;15.53;;
7485;SDS011;3784;54.098;9.998;2022-11-21T15:57:15;21.10;;;16.53;;
7485;SDS011;3784;54.098;9.998;2022-11-21T15:59:48;18.27;;;15.50;;
7485;SDS011;3784;54.098;9.998;2022-11-21T16:02:15;16.87;;;15.10;;
7485;SDS011;3784;54.098;9.998;2022-11-21T16:04:41;18.50;;;15.03;;
7485;SDS011;3784;54.098;9.998;2022-11-21T16:07:08;15.80;;;13.60;;
7485;SDS011;3784;54.098;9.998;2022-11-21T16:09:34;16.93;;;15.33;;
7485;SDS011;3784;54.098;9.998;2022-11-21T16:12:02;16.50;;;12.97;;
7485;SDS011;3784;54.098;9.998;2022-11-21T16:14:29;14.50;;;11.97;;
7485;SDS011;3784;54.098;9.998;2022-11-21T16:16:55;15.73;;;14.03;;
7485;SDS011;3784;54.098;9.998;2022-11-21T16:19:22;14.83;;;13.27;;
7485;SDS011;3784;54.098;9.998;2022-11-21T16:21:48;14.80;;;13.17;;
7485;SDS011;3784;54.098;9.998;2022-11-21T16:24:15;14.40;;;12.90;;
7485;SDS011;3784;54.098;9.998;2022-11-21T16:26:41;14.77;;;13.27;;
7485;SDS011;3784;54.098;9.998;2022-11-21T16:29:08;15.37;;;13.73;;
7485;SDS011;3784;54.098;9.998;2022-11-21T16:31:35;15.07;;;13.47;;
7485;SDS011;3784;54.098;9.998;2022-11-21T16:34:02;15.47;;;13.87;;
7485;SDS011;3784;54.098;9.998;2022-11-21T16:36:29;15.00;;;13.50;;
7485;SDS011;3784;54.098;9.998;2022-11-21T16:38:56;17.70;;;15.33;;
7485;SDS011;3784;54.098;9.998;2022-11-21T16:41:33;18.20;;;15.47;;
7485;SDS011;3784;54.098;9.998;2022-11-21T16:44:00;13.57;;;12.17;;
7485;SDS011;3784;54.098;9.998;2022-11-21T16:46:26;13.20;;;11.57;;
7485;SDS011;3784;54.098;9.998;2022-11-21T16:48:57;14.10;;;12.47;;
7485;SDS011;3784;54.098;9.998;2022-11-21T16:51:25;12.97;;;11.53;;
7485;SDS011;3784;54.098;9.998;2022-11-21T16:53:53;13.30;;;11.37;;
7485;SDS011;3784;54.098;9.998;2022-11-21T16:56:19;14.27;;;11.70;;
7485;SDS011;3784;54.098;9.998;2022-11-21T16:58:46;11.87;;;10.60;;
7485;SDS011;3784;54.098;9.998;2022-11-21T17:01:13;12.60;;;10.83;;
7485;SDS011;3784;54.098;9.998;2022-11-21T17:03:42;12.80;;;11.30;;
7485;SDS011;3784;54.098;9.998;2022-11-21T17:06:10;13.63;;;11.27;;
7485;SDS011;3784;54.098;9.998;2022-11-21T17:08:38;13.93;;;11.63;;
7485;SDS011;3784;54.098;9.998;2022-11-21T17:11:18;13.07;;;11.67;;
7485;SDS011;3784;54.098;9.998;2022-11-21T17:13:47;14.30;;;11.70;;